Time;durP1;ratioP1;P1;durP2;ratioP2;P2;SDS_P1;SDS_P2;PMS_P1;PMS_P2;Temp;Humidity;BMP_temperature;BMP_pressure;BME280_temperature;BME280_humidity;BME280_pressure;Samples;Min_cycle;Max_cycle;Signal;HPM_P1;HPM_P2
2023/06/25 00:01:10;;;;;;;19.27;10.50;;;;;;;22.69;68.25;101897.38;5057229;28;20029;-69
2023/06/25 00:03:36;;;;;;;16.92;11.68;;;;;;;22.58;68.10;101900.31;5074966;28;20076;-68
2023/06/25 00:06:01;;;;;;;13.98;10.68;;;;;;;22.44;68.48;101897.00;5074356;28;20020;-68
2023/06/25 00:08:26;;;;;;;17.40;11.75;;;;;;;22.37;68.91;101888.19;5074985;28;20059;-69
2023/06/25 00:10:52;;;;;;;19.42;11.88;;;;;;;22.31;69.37;101887.44;5074871;28;20032;-69
2023/06/25 00:13:18;;;;;;;21.15;11.25;;;;;;;22.23;69.78;101884.94;5074927;28;20063;-69
2023/06/25 00:15:43;;;;;;;14.80;11.18;;;;;;;22.28;69.85;101882.13;5074950;28;20028;-69
2023/06/25 00:18:08;;;;;;;14.35;10.48;;;;;;;22.37;69.19;101879.25;5074869;28;20028;-69
2023/06/25 00:20:34;;;;;;;15.52;11.18;;;;;;;22.42;68.95;101882.72;5074817;28;20115;-69
2023/06/25 00:22:59;;;;;;;13.30;10.65;;;;;;;22.30;68.54;101882.97;5074636;28;20107;-68
2023/06/25 00:25:26;;;;;;;14.70;11.48;;;;;;;22.27;69.12;101883.03;5074724;28;20075;-69
2023/06/25 00:27:52;;;;;;;17.88;11.25;;;;;;;22.33;68.95;101881.09;5074859;28;20043;-69
2023/06/25 00:30:18;;;;;;;14.93;11.32;;;;;;;22.19;69.08;101889.47;5074826;28;20054;-69
2023/06/25 00:32:44;;;;;;;19.48;11.10;;;;;;;22.04;70.11;101875.41;5074548;28;20033;-69
2023/06/25 00:35:11;;;;;;;16.75;10.52;;;;;;;21.87;70.59;101868.56;5074432;28;20524;-68
2023/06/25 00:37:41;;;;;;;16.73;11.15;;;;;;;21.80;71.14;101869.63;5074177;28;20529;-69
2023/06/25 00:40:09;;;;;;;16.05;11.85;;;;;;;21.92;71.06;101869.34;5074586;28;20028;-69
2023/06/25 00:42:42;;;;;;;16.10;10.60;;;;;;;21.95;70.32;101877.38;5074582;28;20025;-69
2023/06/25 00:45:13;;;;;;;18.10;11.70;;;;;;;21.95;70.46;101865.72;5074215;28;20047;-68
2023/06/25 00:47:42;;;;;;;16.80;11.37;;;;;;;21.75;71.24;101868.78;5074312;28;20029;-68
2023/06/25 00:50:11;;;;;;;15.25;11.73;;;;;;;21.72;71.24;101866.19;5074125;28;20401;-68
2023/06/25 00:52:37;;;;;;;18.70;10.95;;;;;;;21.73;70.83;101859.88;5073948;28;20107;-69
2023/06/25 00:55:03;;;;;;;15.23;11.20;;;;;;;21.76;70.87;101865.22;5074047;28;20023;-69
2023/06/25 00:57:29;;;;;;;16.77;11.50;;;;;;;21.66;71.38;101861.78;5074122;28;20024;-69
2023/06/25 00:59:56;;;;;;;13.13;10.65;;;;;;;21.71;71.06;101862.59;5073906;28;20474;-69
2023/06/25 01:02:34;;;;;;;15.18;11.00;;;;;;;21.62;70.97;101857.38;5073975;28;20044;-68
2023/06/25 01:05:11;;;;;;;15.40;10.88;;;;;;;21.68;70.86;101857.28;5073960;28;20045;-69
2023/06/25 01:07:43;;;;;;;14.93;11.48;;;;;;;21.67;71.21;101854.59;5073595;28;20032;-69
2023/06/25 01:10:12;;;;;;;17.47;10.77;;;;;;;21.60;70.79;101847.59;5073924;28;20070;-68
2023/06/25 01:12:39;;;;;;;19.48;11.57;;;;;;;21.47;72.02;101849.63;5073644;28;20465;-68
2023/06/25 01:15:05;;;;;;;14.45;11.48;;;;;;;21.42;71.88;101840.75;5073690;28;20496;-69
2023/06/25 01:17:32;;;;;;;15.35;10.75;;;;;;;21.44;71.39;101844.28;5072632;28;20040;-68
2023/06/25 01:19:57;;;;;;;16.67;11.60;;;;;;;21.49;71.49;101848.66;5073473;28;20025;-69
2023/06/25 01:22:30;;;;;;;14.57;11.20;;;;;;;21.56;70.86;101844.06;5073475;28;20070;-68
2023/06/25 01:24:59;;;;;;;14.55;11.75;;;;;;;21.61;70.56;101847.53;5073947;28;20414;-68
2023/06/25 01:27:24;;;;;;;19.45;11.50;;;;;;;21.54;70.73;101843.22;5073420;28;20066;-69
2023/06/25 01:29:50;;;;;;;15.43;11.48;;;;;;;21.38;71.71;101831.84;5073447;28;20021;-68
2023/06/25 01:32:17;;;;;;;15.27;10.98;;;;;;;21.34;71.77;101832.81;5073206;28;20056;-69
2023/06/25 01:34:43;;;;;;;16.45;10.85;;;;;;;21.20;72.05;101832.16;5073247;28;20044;-69
2023/06/25 01:37:08;;;;;;;16.45;10.90;;;;;;;21.12;72.59;101831.41;5073159;28;20028;-68
2023/06/25 01:39:34;;;;;;;14.45;11.05;;;;;;;21.10;72.77;101828.72;5073317;28;20478;-69
2023/06/25 01:41:59;;;;;;;13.70;11.13;;;;;;;21.05;73.16;101822.53;5073222;28;20032;-68
2023/06/25 01:44:27;;;;;;;14.18;10.75;;;;;;;21.13;72.60;101825.09;5073198;28;20107;-68
2023/06/25 01:46:52;;;;;;;14.82;10.77;;;;;;;21.13;72.34;101817.03;5073021;28;20044;-69
2023/06/25 01:49:18;;;;;;;16.85;12.48;;;;;;;21.18;72.51;101821.41;5072861;28;20024;-68
2023/06/25 01:51:43;;;;;;;17.67;12.60;;;;;;;21.08;72.79;101819.81;5054915;28;20513;-68
2023/06/25 01:54:08;;;;;;;15.38;11.20;;;;;;;21.03;72.75;101810.94;5073159;28;20052;-68
2023/06/25 01:56:34;;;;;;;16.92;10.80;;;;;;;20.91;73.00;101805.78;5072945;28;20032;-69
2023/06/25 01:58:59;;;;;;;19.63;10.43;;;;;;;20.93;73.22;101806.63;5072899;28;20020;-68
2023/06/25 02:01:25;;;;;;;14.88;11.35;;;;;;;20.93;72.66;101804.81;5072770;28;20029;-68
2023/06/25 02:03:50;;;;;;;13.60;11.15;;;;;;;20.99;72.89;101806.53;5073083;28;20047;-68
2023/06/25 02:06:16;;;;;;;14.60;10.40;;;;;;;20.95;72.79;101792.25;5073040;28;20071;-69
2023/06/25 02:08:41;;;;;;;13.43;10.98;;;;;;;20.84;72.86;101802.28;5072934;28;20075;-68
2023/06/25 02:11:08;;;;;;;16.40;11.30;;;;;;;20.75;73.32;101791.69;5072802;28;20066;-68
2023/06/25 02:13:33;;;;;;;14.85;10.85;;;;;;;20.69;73.72;101795.38;5072848;28;20020;-69
2023/06/25 02:15:59;;;;;;;16.17;11.27;;;;;;;20.71;73.32;101796.22;5072820;28;20563;-68
2023/06/25 02:18:25;;;;;;;15.65;11.38;;;;;;;20.80;73.32;101791.63;5073052;28;20035;-68
2023/06/25 02:20:50;;;;;;;16.50;12.60;;;;;;;20.70;73.25;101785.50;5072808;28;20032;-68
2023/06/25 02:23:16;;;;;;;17.63;12.43;;;;;;;20.62;73.39;101780.25;5072645;28;20036;-68
2023/06/25 02:25:41;;;;;;;15.10;11.30;;;;;;;20.35;74.52;101777.97;5054773;28;20025;-68
2023/06/25 02:28:07;;;;;;;15.30;10.38;;;;;;;20.40;74.63;101774.31;5074709;28;20039;-68
2023/06/25 02:30:32;;;;;;;13.27;10.40;;;;;;;20.49;74.01;101778.69;5076945;28;20032;-68
2023/06/25 02:32:57;;;;;;;13.07;10.18;;;;;;;20.46;74.02;101768.81;5076433;28;20028;-68
2023/06/25 02:35:23;;;;;;;17.02;10.70;;;;;;;20.46;73.80;101767.94;5077026;28;20032;-68
2023/06/25 02:37:48;;;;;;;16.05;10.75;;;;;;;20.53;73.65;101768.78;5076785;28;20067;-68
2023/06/25 02:40:14;;;;;;;15.75;11.30;;;;;;;20.49;73.11;101763.44;5076808;28;20063;-69
2023/06/25 02:42:39;;;;;;;17.55;11.75;;;;;;;20.44;73.33;101764.41;5076704;28;20029;-69
2023/06/25 02:45:05;;;;;;;16.00;12.05;;;;;;;20.49;73.34;101763.44;5076686;28;20481;-68
2023/06/25 02:47:30;;;;;;;16.60;12.50;;;;;;;20.37;74.08;101762.72;5076383;28;20504;-69
2023/06/25 02:49:56;;;;;;;16.65;11.68;;;;;;;20.36;73.66;101759.16;5058933;28;20056;-68
2023/06/25 02:52:21;;;;;;;18.30;12.60;;;;;;;20.37;73.61;101757.34;5076344;28;20040;-68
2023/06/25 02:54:46;;;;;;;14.60;12.02;;;;;;;20.40;73.12;101760.00;5076695;28;20064;-69
2023/06/25 02:57:12;;;;;;;15.80;13.00;;;;;;;20.38;72.99;101754.63;5058601;28;20020;-69
2023/06/25 02:59:38;;;;;;;20.20;13.70;;;;;;;20.29;72.93;101753.91;5076279;28;20111;-68
2023/06/25 03:02:03;;;;;;;18.92;13.65;;;;;;;20.22;73.75;101756.69;5058305;28;20078;-69
2023/06/25 03:04:29;;;;;;;20.55;13.52;;;;;;;20.24;73.83;101754.84;5076188;28;20078;-68
2023/06/25 03:06:54;;;;;;;17.48;13.10;;;;;;;20.25;73.96;101764.66;5075916;28;20028;-69
2023/06/25 03:09:19;;;;;;;19.13;13.75;;;;;;;20.20;73.67;101758.47;5076108;28;20029;-68
2023/06/25 03:11:45;;;;;;;17.40;12.85;;;;;;;20.14;73.35;101763.94;5076011;28;20060;-68
2023/06/25 03:14:10;;;;;;;21.40;14.23;;;;;;;20.00;74.10;101755.22;5076030;28;20108;-69
2023/06/25 03:16:36;;;;;;;19.23;12.88;;;;;;;19.97;74.72;101749.88;5076053;28;20024;-68
2023/06/25 03:19:01;;;;;;;15.32;11.68;;;;;;;20.02;74.21;101758.75;5076161;28;20024;-69
2023/06/25 03:21:27;;;;;;;14.43;10.85;;;;;;;19.97;74.22;101750.78;5075889;28;20031;-68
2023/06/25 03:23:52;;;;;;;19.58;11.98;;;;;;;19.96;73.87;101757.06;5075791;28;20063;-68
2023/06/25 03:26:18;;;;;;;13.40;11.18;;;;;;;19.85;73.93;101758.09;5075878;28;20335;-68
2023/06/25 03:28:43;;;;;;;15.75;10.75;;;;;;;19.81;73.47;101757.25;5075866;28;20071;-68
2023/06/25 03:31:09;;;;;;;12.00;9.63;;;;;;;19.77;74.09;101752.81;5075591;28;20024;-68
2023/06/25 03:33:34;;;;;;;13.20;9.73;;;;;;;19.79;74.33;101751.03;5075502;28;20458;-69
2023/06/25 03:36:00;;;;;;;12.27;9.35;;;;;;;19.74;74.69;101750.16;5075653;28;20032;-68
2023/06/25 03:38:25;;;;;;;11.30;8.80;;;;;;;19.73;74.92;101746.59;5075483;28;20033;-68
2023/06/25 03:40:50;;;;;;;11.65;8.13;;;;;;;19.74;74.46;101740.34;5074722;28;20024;-68
2023/06/25 03:43:16;;;;;;;11.77;8.68;;;;;;;19.75;74.66;101739.44;5075644;28;20025;-69
2023/06/25 03:45:41;;;;;;;11.70;8.50;;;;;;;19.76;74.91;101741.22;5075651;28;20358;-69
2023/06/25 03:48:06;;;;;;;12.18;9.15;;;;;;;19.79;74.97;101742.97;5075591;28;20037;-70
2023/06/25 03:50:32;;;;;;;12.07;8.88;;;;;;;19.80;74.15;101736.69;5075449;28;20032;-68
2023/06/25 03:52:57;;;;;;;12.88;9.05;;;;;;;19.76;73.78;101743.88;5075411;28;20029;-68
2023/06/25 03:55:22;;;;;;;11.27;10.00;;;;;;;19.63;75.24;101739.59;5075137;28;20470;-68
2023/06/25 03:57:50;;;;;;;16.55;11.15;;;;;;;19.58;76.08;101737.84;5075159;28;20025;-69
2023/06/25 04:00:15;;;;;;;17.05;11.57;;;;;;;19.55;76.01;101744.13;5074786;28;20503;-69
2023/06/25 04:02:41;;;;;;;16.40;12.70;;;;;;;19.58;76.47;101740.53;5075229;28;20060;-69
2023/06/25 04:05:06;;;;;;;16.58;11.60;;;;;;;19.59;76.10;101745.88;5075424;28;20405;-68
2023/06/25 04:07:32;;;;;;;14.77;11.38;;;;;;;19.64;76.49;101744.03;5074785;28;20367;-68
2023/06/25 04:09:57;;;;;;;14.77;11.30;;;;;;;19.73;76.27;101743.03;5075152;28;20025;-68
2023/06/25 04:12:22;;;;;;;16.65;11.50;;;;;;;19.77;76.25;101737.63;5074873;28;20427;-68
2023/06/25 04:14:48;;;;;;;14.23;11.48;;;;;;;19.84;75.62;101745.59;5074924;28;20028;-68
2023/06/25 04:17:13;;;;;;;20.15;12.57;;;;;;;19.92;75.85;101739.22;5075026;28;20513;-68
2023/06/25 04:19:38;;;;;;;19.30;14.00;;;;;;;20.00;75.42;101736.44;5075144;28;20025;-69
2023/06/25 04:22:04;;;;;;;18.05;14.50;;;;;;;19.98;75.72;101741.81;5075002;28;20532;-69
2023/06/25 04:24:30;;;;;;;22.70;16.05;;;;;;;20.02;75.46;101740.84;5074981;28;20039;-68
2023/06/25 04:26:56;;;;;;;19.10;14.73;;;;;;;20.03;75.06;101736.38;5057451;28;20025;-68
2023/06/25 04:29:21;;;;;;;17.60;14.07;;;;;;;20.02;75.35;101740.84;5074663;28;20497;-68
2023/06/25 04:31:46;;;;;;;22.67;16.52;;;;;;;20.06;75.47;101735.47;5074323;28;20028;-69
2023/06/25 04:34:12;;;;;;;20.13;16.02;;;;;;;20.08;75.65;101736.31;5074531;28;20040;-68
2023/06/25 04:36:37;;;;;;;21.50;15.93;;;;;;;20.16;75.37;101724.56;5074401;28;20036;-68
2023/06/25 04:39:03;;;;;;;20.13;16.50;;;;;;;20.26;75.01;101736.06;5074327;28;20044;-68
2023/06/25 04:41:28;;;;;;;23.55;16.83;;;;;;;20.27;74.66;101741.41;5074580;28;20029;-68
2023/06/25 04:43:54;;;;;;;20.88;17.10;;;;;;;20.30;74.79;101736.88;5056621;28;20029;-68
2023/06/25 04:46:19;;;;;;;18.23;15.68;;;;;;;20.45;74.22;101739.34;5074215;28;20060;-68
2023/06/25 04:48:45;;;;;;;21.83;17.27;;;;;;;20.47;73.98;101741.09;5074383;28;20044;-68
2023/06/25 04:51:11;;;;;;;21.33;17.42;;;;;;;20.55;73.83;101749.03;5074105;28;20044;-69
2023/06/25 04:53:37;;;;;;;21.38;17.67;;;;;;;20.63;73.10;101741.75;5074097;28;20385;-68
2023/06/25 04:56:02;;;;;;;21.05;17.08;;;;;;;20.73;72.54;101740.69;5074069;28;20020;-68
2023/06/25 04:58:27;;;;;;;23.55;17.80;;;;;;;20.80;72.77;101741.47;5074058;28;20481;-68
2023/06/25 05:00:53;;;;;;;22.60;17.48;;;;;;;20.81;73.37;101740.53;5074139;28;20024;-69
2023/06/25 05:03:18;;;;;;;22.90;17.38;;;;;;;20.96;72.37;101745.66;5073968;28;20024;-68
2023/06/25 05:05:44;;;;;;;21.38;17.65;;;;;;;21.05;71.93;101739.22;5073985;28;20024;-69
2023/06/25 05:08:09;;;;;;;21.60;18.00;;;;;;;21.11;72.66;101736.44;5073835;28;20055;-68
2023/06/25 05:10:35;;;;;;;20.92;17.35;;;;;;;21.25;71.09;101736.16;5073875;28;20059;-68
2023/06/25 05:13:00;;;;;;;21.73;17.25;;;;;;;21.37;70.76;101740.44;5074086;28;20033;-69
2023/06/25 05:15:25;;;;;;;24.17;18.25;;;;;;;21.47;70.13;101734.84;5073927;28;20054;-69
2023/06/25 05:17:51;;;;;;;22.83;18.52;;;;;;;21.59;69.77;101735.53;5074731;28;20024;-68
2023/06/25 05:20:16;;;;;;;21.80;18.80;;;;;;;21.69;69.25;101737.97;5057005;28;20060;-69
2023/06/25 05:22:42;;;;;;;28.05;18.50;;;;;;;21.74;69.27;101735.19;5074627;28;20500;-68
2023/06/25 05:25:08;;;;;;;21.23;18.17;;;;;;;21.92;69.33;101733.91;5073870;28;20056;-69
2023/06/25 05:27:33;;;;;;;23.10;17.80;;;;;;;21.99;68.15;101739.13;5073614;28;20482;-69
2023/06/25 05:29:58;;;;;;;24.98;18.50;;;;;;;22.06;67.91;101736.31;5073410;28;20433;-68
2023/06/25 05:32:24;;;;;;;25.02;18.38;;;;;;;22.12;67.05;101736.16;5073153;28;20040;-68
2023/06/25 05:34:49;;;;;;;22.90;18.35;;;;;;;22.25;67.00;101740.38;5073309;28;20057;-68
2023/06/25 05:37:14;;;;;;;24.85;18.65;;;;;;;22.39;66.59;101737.34;5073142;28;20098;-68
2023/06/25 05:39:40;;;;;;;21.05;17.50;;;;;;;22.52;64.67;101735.22;5073363;28;20104;-68
2023/06/25 05:42:05;;;;;;;23.33;17.10;;;;;;;22.68;64.43;101736.63;5073307;28;20027;-68
2023/06/25 05:44:31;;;;;;;26.08;17.73;;;;;;;22.84;64.64;101737.13;5073191;28;20073;-68
2023/06/25 05:46:56;;;;;;;24.50;16.80;;;;;;;22.99;63.63;101736.75;5073028;28;20478;-68
2023/06/25 05:49:21;;;;;;;20.73;16.90;;;;;;;23.06;62.85;101724.88;5073092;28;20037;-68
2023/06/25 05:51:47;;;;;;;20.88;16.48;;;;;;;23.17;64.38;101724.59;5073043;28;20047;-68
2023/06/25 05:54:12;;;;;;;22.13;15.82;;;;;;;23.27;62.59;101725.22;5072879;28;20025;-68
2023/06/25 05:56:38;;;;;;;22.95;16.88;;;;;;;23.30;62.70;101728.72;5073170;28;20035;-68
2023/06/25 05:59:03;;;;;;;20.58;16.65;;;;;;;23.44;63.06;101729.19;5072801;28;20021;-68
2023/06/25 06:01:28;;;;;;;22.63;16.27;;;;;;;23.53;63.13;101722.66;5072796;28;20025;-68
2023/06/25 06:03:54;;;;;;;21.55;16.02;;;;;;;23.63;63.10;101715.16;5072572;28;20033;-68
2023/06/25 06:06:19;;;;;;;18.88;15.48;;;;;;;23.76;60.99;101716.59;5072792;28;20059;-68
2023/06/25 06:08:45;;;;;;;18.95;14.73;;;;;;;23.94;61.27;101717.88;5072891;28;20036;-68
2023/06/25 06:11:10;;;;;;;20.17;14.63;;;;;;;24.10;59.86;101712.84;5072950;28;20124;-68
2023/06/25 06:13:36;;;;;;;18.88;14.48;;;;;;;24.10;60.51;101713.75;5072968;28;20442;-68
2023/06/25 06:16:02;;;;;;;18.77;14.63;;;;;;;24.31;58.33;101719.41;5072872;28;20043;-68
2023/06/25 06:18:27;;;;;;;22.60;14.82;;;;;;;24.42;57.28;101711.88;5072592;28;20037;-69
2023/06/25 06:20:53;;;;;;;21.23;15.02;;;;;;;24.56;56.84;101720.38;5072621;28;20122;-69
2023/06/25 06:23:18;;;;;;;19.45;13.93;;;;;;;24.69;57.31;101719.03;5054910;28;20060;-69
2023/06/25 06:25:44;;;;;;;20.25;14.43;;;;;;;24.89;56.55;101726.47;5072524;28;20033;-69
2023/06/25 06:28:09;;;;;;;20.02;14.55;;;;;;;24.93;55.14;101724.53;5054899;28;20477;-69
2023/06/25 06:30:35;;;;;;;17.27;13.75;;;;;;;25.14;55.68;101723.81;5072390;28;20020;-68
2023/06/25 06:33:00;;;;;;;18.25;14.35;;;;;;;24.95;55.52;101728.06;5072447;28;20036;-68
2023/06/25 06:35:25;;;;;;;22.35;14.50;;;;;;;25.04;56.47;101725.03;5072708;28;20390;-68
2023/06/25 06:37:51;;;;;;;18.33;14.65;;;;;;;25.17;57.22;101726.38;5072330;28;20024;-68
2023/06/25 06:40:16;;;;;;;20.70;14.55;;;;;;;25.42;54.75;101723.66;5072888;28;20021;-69
2023/06/25 06:42:41;;;;;;;18.95;14.60;;;;;;;25.43;55.39;101716.44;5072568;28;20342;-69
2023/06/25 06:45:07;;;;;;;17.65;13.75;;;;;;;25.53;54.04;101725.09;5072519;28;20025;-69
2023/06/25 06:47:33;;;;;;;20.73;13.45;;;;;;;25.69;53.18;101713.59;5054511;28;20130;-69
2023/06/25 06:50:00;;;;;;;18.88;13.18;;;;;;;25.91;52.45;101715.50;5072388;28;20024;-69
2023/06/25 06:52:26;;;;;;;17.63;13.13;;;;;;;26.00;52.13;101707.06;5072383;28;20478;-69
2023/06/25 06:54:52;;;;;;;22.25;13.02;;;;;;;26.17;51.35;101706.38;5072499;28;20111;-69
2023/06/25 06:57:17;;;;;;;19.92;13.43;;;;;;;26.37;51.78;101705.53;5072349;28;20036;-69
2023/06/25 06:59:46;;;;;;;19.60;12.43;;;;;;;26.54;50.82;101708.47;5072155;28;20032;-69
2023/06/25 07:02:11;;;;;;;16.55;11.93;;;;;;;26.80;49.76;101710.03;5072511;28;20029;-68
2023/06/25 07:04:39;;;;;;;19.45;11.90;;;;;;;26.89;47.65;101706.06;5072643;28;20066;-68
2023/06/25 07:07:06;;;;;;;15.93;11.20;;;;;;;26.68;46.73;101705.16;5072146;28;20075;-69
2023/06/25 07:09:31;;;;;;;14.55;10.80;;;;;;;26.84;46.77;101706.25;5072181;28;20494;-68
2023/06/25 07:11:56;;;;;;;14.80;10.30;;;;;;;26.97;46.58;101701.19;5072234;28;20111;-69
2023/06/25 07:14:22;;;;;;;15.27;10.60;;;;;;;27.20;46.35;101705.63;5074178;28;20099;-69
2023/06/25 07:16:47;;;;;;;17.05;9.25;;;;;;;27.29;43.98;101707.03;5075926;28;20033;-69
2023/06/25 07:19:13;;;;;;;15.10;9.45;;;;;;;27.29;44.46;101702.50;5076042;28;20024;-69
2023/06/25 07:21:39;;;;;;;15.52;9.18;;;;;;;27.36;45.67;101703.06;5075885;28;20075;-69
2023/06/25 07:24:05;;;;;;;14.35;9.68;;;;;;;27.50;44.57;101707.91;5075903;28;20077;-68
2023/06/25 07:26:30;;;;;;;12.27;8.70;;;;;;;27.73;45.68;101705.00;5075868;28;20029;-69
2023/06/25 07:28:56;;;;;;;14.85;9.15;;;;;;;27.86;44.88;101710.72;5076011;28;20033;-69
2023/06/25 07:31:21;;;;;;;13.60;9.35;;;;;;;27.65;43.84;101701.72;5075657;28;20115;-68
2023/06/25 07:33:47;;;;;;;10.73;7.85;;;;;;;27.67;44.23;101708.00;5075562;28;20044;-69
2023/06/25 07:36:13;;;;;;;11.50;8.20;;;;;;;27.72;42.57;101700.50;5075527;28;20064;-69
2023/06/25 07:38:38;;;;;;;13.57;8.40;;;;;;;27.86;43.95;101695.31;5075549;28;20043;-69
2023/06/25 07:41:03;;;;;;;13.25;8.50;;;;;;;27.96;43.31;101698.47;5075662;28;20032;-69
2023/06/25 07:43:29;;;;;;;10.98;8.30;;;;;;;28.13;42.77;101697.63;5075424;28;20543;-69
2023/06/25 07:45:54;;;;;;;12.00;7.88;;;;;;;28.31;43.37;101693.13;5075420;28;20020;-69
2023/06/25 07:48:20;;;;;;;13.15;7.90;;;;;;;28.52;41.34;101694.78;5075494;28;20051;-69
2023/06/25 07:50:45;;;;;;;12.55;7.57;;;;;;;28.48;41.73;101689.59;5075742;28;20025;-69
2023/06/25 07:53:11;;;;;;;9.38;7.22;;;;;;;28.62;42.34;101692.50;5075437;28;20033;-69
2023/06/25 07:55:41;;;;;;;12.50;7.05;;;;;;;28.82;41.74;101686.91;5075360;28;20034;-69
2023/06/25 07:58:07;;;;;;;9.13;7.40;;;;;;;28.95;41.57;101684.44;5075202;28;20037;-69
2023/06/25 08:00:34;;;;;;;9.75;7.60;;;;;;;29.04;40.64;101683.09;5075521;28;20117;-69
2023/06/25 08:02:59;;;;;;;10.18;7.20;;;;;;;29.19;40.66;101674.09;5075277;28;20108;-69
2023/06/25 08:05:25;;;;;;;12.98;6.78;;;;;;;29.42;40.98;101678.25;5075490;28;20029;-68
2023/06/25 08:07:50;;;;;;;10.85;6.93;;;;;;;29.51;39.75;101680.50;5074809;28;20035;-69
2023/06/25 08:10:15;;;;;;;10.13;6.90;;;;;;;29.70;39.57;101683.09;5075069;28;20025;-69
2023/06/25 08:12:41;;;;;;;10.65;7.00;;;;;;;29.86;38.88;101673.09;5074729;28;20025;-69
2023/06/25 08:15:06;;;;;;;9.73;7.22;;;;;;;30.02;38.92;101678.56;5075245;28;20021;-68
2023/06/25 08:17:32;;;;;;;8.43;6.60;;;;;;;30.26;38.62;101679.00;5074882;28;20067;-68
2023/06/25 08:19:57;;;;;;;9.80;6.70;;;;;;;30.34;38.79;101676.69;5075137;28;20048;-68
2023/06/25 08:22:23;;;;;;;9.85;6.68;;;;;;;30.55;37.41;101674.53;5074968;28;20029;-68
2023/06/25 08:24:48;;;;;;;11.63;7.05;;;;;;;30.56;38.08;101669.97;5074520;28;20432;-68
2023/06/25 08:27:14;;;;;;;10.07;6.90;;;;;;;30.62;38.35;101667.75;5074330;28;20107;-69
2023/06/25 08:29:40;;;;;;;9.55;6.82;;;;;;;30.77;37.75;101670.53;5074738;28;20028;-68
2023/06/25 08:32:06;;;;;;;13.20;7.03;;;;;;;30.72;38.12;101676.28;5074451;28;20413;-69
2023/06/25 08:34:32;;;;;;;12.70;7.10;;;;;;;30.32;38.52;101667.75;5074336;28;20098;-69
2023/06/25 08:36:58;;;;;;;10.93;6.82;;;;;;;30.53;38.49;101661.94;5074729;28;20033;-69
2023/06/25 08:39:23;;;;;;;7.72;6.13;;;;;;;30.70;36.37;101653.63;5074621;28;20021;-69
2023/06/25 08:41:49;;;;;;;11.82;5.90;;;;;;;30.95;38.23;101661.22;5074141;28;20516;-68
2023/06/25 08:44:15;;;;;;;7.72;6.00;;;;;;;31.23;36.51;101656.78;5074575;28;20036;-69
2023/06/25 08:46:46;;;;;;;9.02;6.35;;;;;;;31.45;36.40;101650.84;5074402;28;20024;-68
2023/06/25 08:49:12;;;;;;;9.38;6.15;;;;;;;31.76;37.32;101650.59;5074284;28;20393;-69
2023/06/25 08:51:37;;;;;;;7.18;5.28;;;;;;;31.64;33.71;101656.88;5074170;28;20020;-69
2023/06/25 08:54:03;;;;;;;8.45;5.20;;;;;;;31.71;33.43;101641.84;5074016;28;20082;-68
2023/06/25 08:56:28;;;;;;;7.07;5.35;;;;;;;31.66;34.49;101649.47;5073906;28;20500;-69
2023/06/25 08:58:54;;;;;;;7.68;5.22;;;;;;;31.92;33.83;101645.91;5073842;28;20025;-69
2023/06/25 09:01:19;;;;;;;6.40;4.88;;;;;;;32.35;33.67;101642.16;5074333;28;20028;-69
2023/06/25 09:03:45;;;;;;;6.55;4.85;;;;;;;32.30;32.38;101645.19;5074037;28;20362;-69
2023/06/25 09:06:15;;;;;;;6.80;4.85;;;;;;;32.24;33.05;101637.41;5073990;28;20021;-69
2023/06/25 09:08:44;;;;;;;7.32;5.05;;;;;;;32.34;33.63;101637.66;5073600;28;20397;-68
2023/06/25 09:11:10;;;;;;;7.82;4.90;;;;;;;32.42;33.76;101643.53;5055711;28;20036;-69
2023/06/25 09:13:37;;;;;;;6.80;4.90;;;;;;;32.74;32.69;101644.00;5074168;28;20029;-69
2023/06/25 09:16:05;;;;;;;6.22;4.50;;;;;;;32.80;32.34;101643.56;5073972;28;20025;-68
2023/06/25 09:18:31;;;;;;;9.13;4.78;;;;;;;33.18;31.27;101639.13;5073867;28;20031;-69
2023/06/25 09:21:01;;;;;;;8.60;4.47;;;;;;;33.05;32.77;101634.53;5073796;28;20024;-69
2023/06/25 09:23:26;;;;;;;6.88;4.88;;;;;;;33.07;31.59;101628.97;5073632;28;20433;-69
2023/06/25 09:25:52;;;;;;;7.57;4.90;;;;;;;33.19;32.22;101635.41;5073729;28;20780;-68
2023/06/25 09:28:18;;;;;;;8.80;4.75;;;;;;;33.45;32.50;101625.31;5073823;28;20032;-67
2023/06/25 09:30:44;;;;;;;6.65;4.95;;;;;;;33.45;31.84;101626.22;5073447;28;20382;-65
2023/06/25 09:33:11;;;;;;;7.60;4.35;;;;;;;33.79;30.36;101623.69;5073210;28;20031;-66
2023/06/25 09:35:37;;;;;;;6.57;4.78;;;;;;;33.99;29.34;101620.38;5055502;28;20024;-67
2023/06/25 09:38:03;;;;;;;7.65;5.00;;;;;;;33.75;30.29;101623.06;5072290;28;20078;-67
2023/06/25 09:40:28;;;;;;;7.35;4.70;;;;;;;34.03;30.32;101627.38;5073147;28;20033;-66
2023/06/25 09:42:58;;;;;;;9.82;4.80;;;;;;;34.22;29.56;101626.84;5073296;28;20048;-68
2023/06/25 09:45:25;;;;;;;7.30;4.80;;;;;;;34.65;28.84;101620.81;5073111;28;20025;-67
2023/06/25 09:47:53;;;;;;;7.78;5.00;;;;;;;34.70;28.02;101620.44;5073383;28;20021;-68
2023/06/25 09:50:32;;;;;;;10.38;4.78;;;;;;;34.14;30.29;101613.72;5073086;28;20024;-67
2023/06/25 09:53:00;;;;;;;7.65;4.85;;;;;;;34.26;29.10;101608.25;5057125;28;20135;-67
2023/06/25 09:55:28;;;;;;;7.18;4.72;;;;;;;34.30;28.53;101607.03;5053077;28;20017;-66
2023/06/25 09:57:55;;;;;;;7.65;4.60;;;;;;;33.92;28.99;101609.94;5052902;28;20044;-69
2023/06/25 10:00:22;;;;;;;5.07;4.35;;;;;;;33.97;28.97;101603.16;5052842;28;20055;-69
2023/06/25 10:02:48;;;;;;;6.68;5.03;;;;;;;34.27;29.37;101607.28;5053072;28;20025;-69
2023/06/25 10:05:13;;;;;;;9.35;4.40;;;;;;;34.57;28.84;101596.69;5052920;28;20030;-68
2023/06/25 10:07:40;;;;;;;5.55;4.75;;;;;;;34.58;28.75;101600.31;5052632;28;20025;-68
2023/06/25 10:10:06;;;;;;;6.93;4.80;;;;;;;34.64;28.82;101610.78;5052953;28;20021;-69
2023/06/25 10:12:41;;;;;;;5.70;4.82;;;;;;;34.97;28.33;101589.88;5052865;28;20033;-69
2023/06/25 10:15:06;;;;;;;6.70;4.65;;;;;;;34.97;27.25;101596.28;5053131;28;20489;-69
2023/06/25 10:17:34;;;;;;;7.40;4.43;;;;;;;35.21;27.54;101598.06;5052696;28;20108;-68
2023/06/25 10:20:01;;;;;;;7.28;4.40;;;;;;;35.55;26.22;101587.94;5052505;28;20103;-68
2023/06/25 10:22:28;;;;;;;5.95;4.70;;;;;;;35.25;27.21;101585.81;5052677;28;20029;-67
2023/06/25 10:24:55;;;;;;;6.75;4.60;;;;;;;35.41;26.78;101589.03;5034337;28;20075;-69
2023/06/25 10:27:20;;;;;;;7.47;4.55;;;;;;;35.54;26.14;101584.28;5052968;28;20032;-65
2023/06/25 10:29:46;;;;;;;5.65;4.30;;;;;;;35.66;25.61;101585.16;5052991;28;20123;-68
2023/06/25 10:32:14;;;;;;;10.32;4.68;;;;;;;35.77;25.85;101576.00;5052538;28;20031;-66
2023/06/25 10:34:40;;;;;;;5.38;4.47;;;;;;;35.53;27.10;101579.81;5052256;28;20060;-66
2023/06/25 10:37:07;;;;;;;6.82;4.50;;;;;;;34.97;26.23;101585.31;5052297;28;20033;-66
2023/06/25 10:39:40;;;;;;;7.30;4.53;;;;;;;34.78;26.47;101572.16;5052315;28;20534;-66
2023/06/25 10:42:06;;;;;;;5.80;4.32;;;;;;;35.29;24.67;101570.81;5054702;28;20099;-66
2023/06/25 10:44:32;;;;;;;7.03;4.47;;;;;;;35.69;25.64;101562.91;5052088;28;20025;-68
2023/06/25 10:47:08;;;;;;;7.25;4.53;;;;;;;35.92;25.60;101571.94;5052118;28;20079;-69
2023/06/25 10:49:34;;;;;;;7.20;4.43;;;;;;;35.93;24.47;101567.31;5054991;28;20021;-69
2023/06/25 10:52:04;;;;;;;5.38;4.20;;;;;;;35.88;24.25;101562.22;5056378;28;20490;-69
2023/06/25 10:54:33;;;;;;;5.97;4.00;;;;;;;35.73;24.11;101561.66;5038576;28;20029;-69
2023/06/25 10:57:08;;;;;;;7.10;4.28;;;;;;;35.82;25.17;101563.63;5056402;28;20037;-68
2023/06/25 10:59:34;;;;;;;10.45;4.93;;;;;;;35.49;24.24;101556.31;5056351;28;20031;-69
2023/06/25 11:02:20;;;;;;;7.15;4.57;;;;;;;35.72;24.26;101559.00;5056228;28;20100;-69
2023/06/25 11:04:53;;;;;;;6.15;4.80;;;;;;;35.86;25.05;101544.97;5056520;28;20029;-69
2023/06/25 11:07:20;;;;;;;6.32;4.30;;;;;;;36.23;24.41;101544.56;5056178;28;20052;-68
2023/06/25 11:09:50;;;;;;;5.65;4.22;;;;;;;36.53;23.60;101544.69;5055967;28;20092;-68